Time;durP1;ratioP1;P1;durP2;ratioP2;P2;SDS_P1;SDS_P2;PMS_P1;PMS_P2;Temp;Humidity;BMP_temperature;BMP_pressure;BME280_temperature;BME280_humidity;BME280_pressure;Samples;Min_cycle;Max_cycle;Signal;HPM_P1;HPM_P2
2022/09/13 00:00:59;;;;;;;4.13;2.78;;;14.80;99.90;;;13.89;100.00;100730.81;4974484;28;20038;-78
2022/09/13 00:03:25;;;;;;;2.90;2.50;;;14.90;99.90;;;13.92;100.00;100731.44;4958637;28;20030;-80
2022/09/13 00:05:51;;;;;;;2.95;2.55;;;14.90;99.90;;;13.93;100.00;100732.28;4974489;28;20026;-79
2022/09/13 00:08:17;;;;;;;5.18;2.72;;;14.90;99.90;;;13.94;100.00;100731.38;4975059;28;20030;-81
2022/09/13 00:10:44;;;;;;;6.55;2.78;;;14.90;99.90;;;13.92;100.00;100717.38;4998969;28;20644;-79
2022/09/13 00:13:17;;;;;;;3.67;2.70;;;14.90;99.90;;;13.89;100.00;100723.72;4993121;28;20176;-79
2022/09/13 00:16:02;;;;;;;3.35;2.63;;;14.90;99.90;;;13.90;100.00;100708.66;4979403;28;20494;-79
2022/09/13 00:18:41;;;;;;;3.67;2.70;;;14.90;99.90;;;13.88;100.00;100705.25;4973682;28;20043;-79
2022/09/13 00:22:06;;;;;;;;;;;;;;;;;;;;;
2022/09/13 00:24:33;;;;;;;6.07;2.80;;;14.80;99.90;;;13.82;100.00;100711.81;4995757;28;20390;-79
2022/09/13 00:27:11;;;;;;;3.90;2.60;;;14.80;99.90;;;13.81;100.00;100694.19;4985154;28;20038;-80
2022/09/13 00:29:38;;;;;;;7.85;2.75;;;;;;;13.74;100.00;100691.06;4977128;28;20045;-80
2022/09/13 00:32:21;;;;;;;5.55;2.85;;;14.80;99.90;;;13.72;100.00;100687.66;4993196;28;20034;-79
2022/09/13 00:35:22;;;;;;;;;;;;;;;;;;;;;
2022/09/13 00:37:51;;;;;;;5.10;2.90;;;;;;;13.73;100.00;100686.72;5001017;28;20049;-79
2022/09/13 00:40:20;;;;;;;3.35;2.50;;;14.70;99.90;;;13.70;100.00;100689.56;4996108;28;20081;-80
2022/09/13 00:43:28;;;;;;;3.63;2.90;;;14.70;99.90;;;13.66;100.00;100677.44;5000314;28;21255;-78
2022/09/13 00:46:39;;;;;;;3.08;2.50;;;14.70;99.90;;;13.57;100.00;100667.44;4954539;28;20030;-79
2022/09/13 00:49:38;;;;;;;5.13;2.60;;;14.60;99.90;;;13.47;100.00;100668.91;4993883;28;20402;-80
2022/09/13 00:52:30;;;;;;;5.75;2.78;;;14.50;99.90;;;13.43;100.00;100672.69;5016440;28;20042;-78
2022/09/13 00:55:09;;;;;;;6.18;3.10;;;;;;;13.36;100.00;100656.31;4999068;28;20030;-80
2022/09/13 00:57:39;;;;;;;4.85;3.00;;;;;;;13.30;100.00;100654.91;4991647;28;20050;-80
2022/09/13 01:00:43;;;;;;;3.38;2.65;;;;;;;13.25;100.00;100670.16;4994666;28;20071;-80
2022/09/13 01:06:39;;;;;;;5.78;2.90;;;14.10;99.90;;;13.06;100.00;100659.78;4985908;28;20055;-80
2022/09/13 01:09:19;;;;;;;5.18;2.80;;;14.10;99.90;;;13.00;100.00;100654.00;5001495;28;20034;-79
2022/09/13 01:12:03;;;;;;;5.00;2.92;;;14.00;99.90;;;12.95;100.00;100646.34;4987866;28;20494;-79
2022/09/13 01:14:58;;;;;;;4.82;2.90;;;;;;;12.86;100.00;100639.81;4974958;28;20045;-80
2022/09/13 01:17:48;;;;;;;7.53;3.63;;;13.90;99.90;;;12.84;100.00;100632.91;4991130;28;20076;-80
2022/09/13 01:21:21;;;;;;;6.22;2.92;;;13.80;99.90;;;12.82;100.00;100625.06;4970137;28;20038;-79
2022/09/13 01:24:29;;;;;;;4.10;3.03;;;13.90;99.90;;;12.84;100.00;100612.63;4973424;28;20050;-80
2022/09/13 01:27:39;;;;;;;4.60;2.65;;;13.90;99.90;;;12.89;100.00;100615.88;4993574;28;20038;-81
2022/09/13 01:30:20;;;;;;;4.57;2.80;;;13.90;99.90;;;12.89;100.00;100612.34;4995229;28;20023;-81
2022/09/13 01:33:18;;;;;;;3.33;2.85;;;13.90;99.90;;;12.92;100.00;100610.38;4994517;28;20047;-81
2022/09/13 01:36:04;;;;;;;6.75;3.33;;;13.90;99.90;;;12.93;100.00;100604.16;5001625;28;20309;-81
2022/09/13 01:38:45;;;;;;;7.37;3.10;;;13.90;99.90;;;12.93;100.00;100598.03;4992637;28;20042;-79
2022/09/13 01:41:30;;;;;;;7.55;2.90;;;13.90;99.90;;;12.92;100.00;100605.09;4998632;28;20706;-80
2022/09/13 01:44:32;;;;;;;5.53;2.65;;;14.00;99.90;;;12.97;100.00;100596.06;4977758;28;20038;-80
2022/09/13 01:47:13;;;;;;;5.18;2.78;;;14.00;99.90;;;12.96;100.00;100592.56;4993224;28;20117;-80
2022/09/13 01:49:47;;;;;;;4.05;3.03;;;14.00;99.90;;;13.04;100.00;100590.31;4984485;28;20121;-81
2022/09/13 01:52:43;;;;;;;4.90;2.70;;;14.10;99.90;;;13.13;100.00;100594.19;4986814;28;20117;-80
2022/09/13 01:55:47;;;;;;;5.50;2.75;;;14.10;99.90;;;13.20;100.00;100589.41;5004405;28;20027;-79
2022/09/13 01:58:26;;;;;;;3.10;2.60;;;14.20;99.90;;;13.23;100.00;100587.41;4995876;28;20053;-80
2022/09/13 02:00:59;;;;;;;4.32;2.90;;;14.20;99.90;;;13.28;100.00;100576.56;4996060;28;20438;-80
2022/09/13 02:03:41;;;;;;;3.17;2.58;;;14.30;99.90;;;13.32;100.00;100571.03;4978081;28;20054;-80
2022/09/13 02:06:17;;;;;;;6.13;2.60;;;14.30;99.90;;;13.39;100.00;100578.59;4993438;28;20181;-80
2022/09/13 02:08:47;;;;;;;;;;;14.40;99.90;;;13.43;100.00;100577.47;5000955;28;20093;-80
2022/09/13 02:11:19;;;;;;;5.63;2.78;;;14.40;99.90;;;13.45;100.00;100571.13;4992329;28;19920;-80
2022/09/13 02:14:06;;;;;;;11.73;2.40;;;14.40;99.90;;;13.51;100.00;100570.75;5001090;28;20113;-80
2022/09/13 02:16:57;;;;;;;8.05;2.72;;;14.50;99.90;;;13.54;100.00;100567.06;5001214;28;20039;-80
2022/09/13 02:19:39;;;;;;;5.32;2.50;;;14.50;99.90;;;13.59;100.00;100561.53;4985546;28;20507;-81
2022/09/13 02:22:10;;;;;;;6.25;2.60;;;14.60;99.90;;;13.61;100.00;100559.63;5002847;28;20499;-82
2022/09/13 02:24:46;;;;;;;12.75;2.80;;;14.60;99.90;;;13.62;100.00;100550.75;4993864;28;20050;-80
2022/09/13 02:27:20;;;;;;;7.53;2.88;;;14.60;99.90;;;13.65;100.00;100548.75;4984770;28;20027;-79
2022/09/13 02:29:57;;;;;;;6.13;2.63;;;14.60;99.90;;;13.67;100.00;100544.22;4990983;28;20030;-81
2022/09/13 02:32:48;;;;;;;4.18;2.65;;;14.60;99.90;;;13.69;100.00;100537.06;4985297;28;20046;-80
2022/09/13 02:35:32;;;;;;;6.07;2.80;;;14.70;99.90;;;13.72;100.00;100536.00;5000388;28;20027;-80
2022/09/13 02:38:07;;;;;;;3.42;2.40;;;14.70;99.90;;;13.76;100.00;100534.88;4998691;28;20035;-80
2022/09/13 02:40:42;;;;;;;4.95;2.70;;;14.70;99.90;;;13.75;100.00;100531.34;4976336;28;20066;-79
2022/09/13 02:43:22;;;;;;;3.92;2.67;;;14.70;99.90;;;13.79;100.00;100526.72;4985144;28;20031;-80
2022/09/13 02:46:10;;;;;;;4.47;2.97;;;14.70;99.90;;;13.76;100.00;100513.69;4975971;28;20105;-81
2022/09/13 02:49:16;;;;;;;4.13;2.75;;;14.80;99.90;;;13.79;100.00;100515.28;4992353;28;20049;-80
2022/09/13 02:51:56;;;;;;;4.30;2.75;;;14.70;99.90;;;13.80;100.00;100506.41;4990510;28;20045;-79
2022/09/13 02:54:35;;;;;;;8.57;2.88;;;14.80;99.90;;;13.81;100.00;100502.81;4998688;28;20030;-80
2022/09/13 02:57:25;;;;;;;4.60;2.90;;;14.80;99.90;;;13.86;100.00;100490.13;4999324;28;20037;-79
2022/09/13 02:59:56;;;;;;;6.32;3.00;;;14.80;99.90;;;13.88;100.00;100488.22;4990780;28;20027;-80
2022/09/13 03:02:28;;;;;;;3.40;2.40;;;14.90;99.90;;;13.89;100.00;100495.25;4990519;28;20066;-80
2022/09/13 03:05:01;;;;;;;7.43;3.30;;;14.90;99.90;;;13.94;100.00;100495.78;5000144;28;20058;-80
2022/09/13 03:07:27;;;;;;;5.65;3.50;;;14.90;99.90;;;13.97;100.00;100492.09;4990427;28;20049;-81
2022/09/13 03:10:06;;;;;;;5.72;2.67;;;14.90;99.90;;;13.94;100.00;100488.69;4991527;28;20065;-79
2022/09/13 03:13:27;;;;;;;7.65;2.92;;;14.90;99.90;;;13.98;100.00;100478.75;4998417;28;20486;-79
2022/09/13 03:16:44;;;;;;;4.15;3.03;;;14.90;99.90;;;14.00;100.00;100486.59;4996241;28;20149;-80
2022/09/13 03:19:46;;;;;;;9.70;3.20;;;14.90;99.90;;;13.95;100.00;100479.81;4955263;28;20073;-80
2022/09/13 03:22:57;;;;;;;3.95;3.03;;;14.90;99.90;;;14.01;100.00;100478.53;4985075;28;20451;-79
2022/09/13 03:25:31;;;;;;;4.28;3.10;;;14.90;99.90;;;14.03;100.00;100468.72;4998761;28;20034;-79
2022/09/13 03:29:01;;;;;;;7.18;3.80;;;15.00;99.90;;;14.05;100.00;100479.22;5031418;23;20038;-81
2022/09/13 03:32:19;;;;;;;7.55;3.50;;;15.00;99.90;;;14.05;100.00;100465.97;5000987;28;20526;-80
2022/09/13 03:35:53;;;;;;;;;;;;;;;;;;;;;
2022/09/13 03:39:20;;;;;;;;;;;;;;;;;;;;;
2022/09/13 03:42:29;;;;;;;8.88;3.92;;;15.00;99.90;;;14.05;100.00;100447.44;4995770;28;20102;-79
2022/09/13 03:46:05;;;;;;;;;;;;;;;;;;;;;
2022/09/13 03:48:29;;;;;;;8.40;4.18;;;15.00;99.90;;;14.01;100.00;100446.78;4998419;28;20084;-79
2022/09/13 03:50:55;;;;;;;10.07;4.53;;;15.00;99.90;;;13.99;100.00;100437.25;4983896;28;20042;-81
2022/09/13 03:53:34;;;;;;;7.97;4.72;;;15.00;99.90;;;14.03;100.00;100429.00;4984906;28;20034;-79
2022/09/13 03:56:12;;;;;;;9.75;4.40;;;15.00;99.90;;;14.00;100.00;100433.66;5012938;28;20026;-80
2022/09/13 03:58:38;;;;;;;6.38;4.72;;;15.00;99.90;;;14.00;100.00;100434.50;4985264;28;20612;-81
2022/09/13 04:01:04;;;;;;;8.50;4.57;;;15.00;99.90;;;14.02;100.00;100421.19;4999184;28;20037;-81
2022/09/13 04:03:29;;;;;;;5.97;4.38;;;15.00;99.90;;;14.01;100.00;100415.00;4999867;28;20030;-80
2022/09/13 04:05:55;;;;;;;5.50;4.32;;;15.00;99.90;;;14.02;100.00;100406.13;5000591;28;20030;-80
2022/09/13 04:08:21;;;;;;;6.55;4.28;;;15.00;99.90;;;14.03;100.00;100410.47;4983654;28;20025;-79
2022/09/13 04:10:51;;;;;;;9.32;4.72;;;15.00;99.90;;;14.01;100.00;100399.13;5012463;28;20402;-81
2022/09/13 04:13:17;;;;;;;6.13;4.78;;;15.00;99.90;;;14.02;100.00;100402.66;5015819;28;20109;-80
2022/09/13 04:15:43;;;;;;;7.80;5.05;;;15.00;99.90;;;14.02;100.00;100400.84;5000668;28;20081;-80
2022/09/13 04:18:10;;;;;;;7.20;4.95;;;15.00;99.90;;;14.00;100.00;100402.75;4997963;28;20049;-78
2022/09/13 04:20:36;;;;;;;7.05;4.75;;;15.00;99.90;;;14.04;100.00;100392.78;4983051;28;20034;-80
2022/09/13 04:23:01;;;;;;;8.18;5.28;;;15.00;99.90;;;14.04;100.00;100387.50;5016532;28;20095;-79
2022/09/13 04:25:39;;;;;;;9.45;4.97;;;15.00;99.90;;;14.01;100.00;100385.91;5016089;28;20124;-80
2022/09/13 04:28:05;;;;;;;10.88;5.20;;;15.00;99.90;;;14.05;100.00;100375.97;5016518;28;20027;-80
2022/09/13 04:30:42;;;;;;;8.15;5.28;;;15.00;99.90;;;14.09;100.00;100374.81;4997861;28;20030;-80
2022/09/13 04:33:08;;;;;;;8.77;5.05;;;15.10;99.90;;;14.09;100.00;100373.00;4981807;28;20097;-79
2022/09/13 04:35:43;;;;;;;9.35;5.30;;;15.10;99.90;;;14.11;100.00;100376.41;5018259;28;20085;-80
2022/09/13 04:38:08;;;;;;;10.23;5.30;;;15.10;99.90;;;14.14;100.00;100370.03;5001216;28;20026;-80
2022/09/13 04:40:36;;;;;;;7.60;5.22;;;15.10;99.90;;;14.16;100.00;100366.34;5013469;28;20113;-80
2022/09/13 04:43:06;;;;;;;13.98;5.55;;;15.10;99.90;;;14.12;100.00;100362.22;5013813;28;20109;-80
2022/09/13 04:45:32;;;;;;;9.95;5.03;;;15.10;99.90;;;14.15;100.00;100358.53;4999205;28;20108;-78
2022/09/13 04:47:59;;;;;;;10.10;5.38;;;15.10;99.90;;;14.13;100.00;100358.63;5016829;28;20114;-80
2022/09/13 04:50:25;;;;;;;7.00;5.40;;;15.10;99.90;;;14.14;100.00;100362.94;5024684;28;20023;-80
2022/09/13 04:52:59;;;;;;;8.65;5.30;;;15.10;99.90;;;14.10;100.00;100353.53;5013189;28;20532;-78
2022/09/13 04:55:25;;;;;;;7.93;5.45;;;15.10;99.90;;;14.14;100.00;100355.00;4999252;28;20030;-80
2022/09/13 04:57:55;;;;;;;10.85;5.50;;;15.20;99.90;;;14.20;100.00;100363.50;4999948;28;20567;-78
2022/09/13 05:00:21;;;;;;;6.97;4.88;;;15.20;99.90;;;14.19;100.00;100346.78;5018981;28;20037;-80
2022/09/13 05:02:53;;;;;;;6.15;5.05;;;15.20;99.90;;;14.24;100.00;100347.28;5016308;28;20027;-80
2022/09/13 05:05:19;;;;;;;6.78;4.82;;;15.20;99.90;;;14.25;100.00;100342.84;4987581;28;20141;-80
2022/09/13 05:07:44;;;;;;;6.78;4.93;;;15.20;99.90;;;14.30;100.00;100332.81;5002683;28;20028;-80
2022/09/13 05:10:10;;;;;;;6.03;4.90;;;15.30;99.90;;;14.32;100.00;100336.19;5003238;28;20105;-79
2022/09/13 05:12:36;;;;;;;10.63;5.28;;;15.30;99.90;;;14.33;100.00;100343.16;5000877;28;20124;-80
2022/09/13 05:15:08;;;;;;;12.00;4.25;;;15.30;99.90;;;14.34;100.00;100345.72;5018732;28;20113;-79
2022/09/13 05:17:33;;;;;;;8.80;4.60;;;15.30;99.90;;;14.36;100.00;100335.00;5002295;28;20098;-80
2022/09/13 05:19:59;;;;;;;8.82;5.20;;;15.30;99.90;;;14.38;100.00;100340.22;5004768;28;20042;-79
2022/09/13 05:22:25;;;;;;;6.57;4.63;;;15.40;99.90;;;14.39;100.00;100332.16;5002769;28;20109;-80
2022/09/13 05:24:51;;;;;;;7.30;4.32;;;15.40;99.90;;;14.41;100.00;100340.00;5026455;28;20038;-80
2022/09/13 05:27:16;;;;;;;6.97;4.75;;;15.40;99.90;;;14.43;100.00;100332.81;5002588;28;20603;-80
2022/09/13 05:29:47;;;;;;;7.78;4.90;;;15.40;99.90;;;14.44;100.00;100327.38;5003091;28;20045;-80
2022/09/13 05:32:13;;;;;;;6.40;4.57;;;15.40;99.90;;;14.44;100.00;100330.03;4985323;28;20030;-80
2022/09/13 05:34:39;;;;;;;7.95;4.85;;;15.40;99.90;;;14.46;100.00;100322.81;4987267;28;20102;-80
2022/09/13 05:37:05;;;;;;;8.80;5.00;;;15.40;99.90;;;14.45;100.00;100326.44;5001594;28;20637;-80
2022/09/13 05:41:56;;;;;;;7.60;5.03;;;15.40;99.90;;;14.50;100.00;100316.38;5058954;22;20049;-81
2022/09/13 05:44:25;;;;;;;6.45;4.25;;;15.50;99.90;;;14.55;100.00;100319.56;5007344;28;20029;-79
2022/09/13 05:46:51;;;;;;;6.20;4.55;;;15.50;99.90;;;14.61;100.00;100317.47;5008600;28;20119;-79
2022/09/13 05:49:17;;;;;;;7.20;4.60;;;15.50;99.90;;;14.62;100.00;100313.84;5042881;28;20029;-81
2022/09/13 05:51:43;;;;;;;8.23;4.88;;;15.60;99.90;;;14.67;100.00;100309.94;5018941;28;20537;-79
2022/09/13 05:54:11;;;;;;;7.03;4.38;;;15.60;99.90;;;14.72;100.00;100321.03;5006517;28;20071;-80
2022/09/13 05:56:37;;;;;;;6.85;4.30;;;15.60;99.90;;;14.79;100.00;100325.91;5020980;28;20026;-80
2022/09/13 05:59:03;;;;;;;8.02;4.22;;;15.70;99.90;;;14.81;100.00;100327.50;5003664;28;20545;-79
2022/09/13 06:01:29;;;;;;;9.45;4.43;;;15.80;99.90;;;14.92;100.00;100326.72;4990531;28;20033;-81
2022/09/13 06:03:59;;;;;;;5.70;4.20;;;15.80;99.90;;;14.96;100.00;100329.06;5003290;28;20033;-81
2022/09/13 06:06:25;;;;;;;5.20;4.03;;;15.90;99.90;;;15.03;100.00;100339.22;4985702;28;20485;-81
2022/09/13 06:08:53;;;;;;;6.85;4.60;;;16.00;99.90;;;15.10;100.00;100332.53;5021633;28;20075;-80
2022/09/13 06:11:19;;;;;;;6.18;3.85;;;16.00;99.90;;;15.10;100.00;100338.69;5003841;28;20029;-80
2022/09/13 06:13:45;;;;;;;6.80;4.07;;;16.00;99.90;;;15.15;100.00;100338.34;4989761;28;20028;-80
2022/09/13 06:16:12;;;;;;;6.82;4.47;;;16.10;99.90;;;15.16;100.00;100334.72;5003518;28;20570;-78
2022/09/13 06:18:39;;;;;;;6.53;4.60;;;16.10;99.90;;;15.12;100.00;100330.63;4988040;28;20400;-80
2022/09/13 06:21:10;;;;;;;6.35;4.68;;;16.10;99.90;;;15.10;100.00;100321.94;5021943;28;20113;-81
2022/09/13 06:23:37;;;;;;;7.55;4.82;;;16.10;99.90;;;15.05;100.00;100327.53;5012576;28;20689;-80
2022/09/13 06:26:11;;;;;;;9.90;4.68;;;16.10;99.90;;;15.03;100.00;100323.31;4987822;28;20044;-79
2022/09/13 06:28:41;;;;;;;8.07;5.15;;;16.00;99.90;;;15.00;100.00;100324.38;5004518;28;20033;-80
2022/09/13 06:31:13;;;;;;;6.50;4.55;;;16.00;99.90;;;14.94;100.00;100311.56;4984610;28;20065;-80
2022/09/13 06:33:42;;;;;;;7.32;5.13;;;16.00;99.90;;;14.94;100.00;100303.63;5005519;28;20529;-79
2022/09/13 06:36:17;;;;;;;8.05;5.05;;;16.00;99.90;;;14.96;100.00;100305.19;4987292;28;20582;-80
2022/09/13 06:38:52;;;;;;;8.87;5.10;;;15.90;99.90;;;14.97;100.00;100298.94;5024704;28;20469;-79
2022/09/13 06:41:22;;;;;;;6.78;4.95;;;16.00;99.90;;;15.03;100.00;100302.97;4985551;28;20280;-79
2022/09/13 06:43:58;;;;;;;5.50;4.90;;;16.00;99.90;;;15.13;100.00;100303.97;5001890;28;20026;-80
2022/09/13 06:46:27;;;;;;;9.25;4.85;;;16.10;99.90;;;15.25;100.00;100291.66;4990121;28;20528;-79
2022/09/13 06:48:53;;;;;;;8.05;4.90;;;16.20;99.90;;;15.34;100.00;100296.28;5022112;28;20136;-78
2022/09/13 06:51:23;;;;;;;6.70;5.18;;;16.30;99.90;;;15.38;100.00;100297.75;5003874;28;20236;-80
2022/09/13 06:53:50;;;;;;;11.40;5.35;;;16.30;99.90;;;15.38;100.00;100288.94;5018271;28;20030;-80
2022/09/13 06:56:20;;;;;;;7.50;5.40;;;16.30;99.90;;;15.38;100.00;100299.56;5018571;28;20018;-81
2022/09/13 06:58:53;;;;;;;6.22;5.38;;;16.30;99.90;;;15.41;100.00;100303.78;5004358;28;20017;-80
2022/09/13 07:01:34;;;;;;;8.52;5.53;;;16.30;99.90;;;15.44;100.00;100304.38;5017994;28;20037;-79
2022/09/13 07:04:05;;;;;;;6.72;5.07;;;16.30;99.90;;;15.43;100.00;100302.72;5015789;28;20105;-80
2022/09/13 07:06:37;;;;;;;10.30;5.85;;;16.30;99.90;;;15.39;100.00;100304.72;5018228;28;20116;-79
2022/09/13 07:09:06;;;;;;;7.15;5.47;;;16.30;99.90;;;15.42;100.00;100306.34;5006988;28;20022;-80
2022/09/13 07:11:42;;;;;;;7.68;5.70;;;16.30;99.90;;;15.47;100.00;100301.53;4993225;28;20026;-81
2022/09/13 07:14:12;;;;;;;;;;;16.40;99.90;;;15.47;100.00;100308.66;5021619;28;20038;-81
2022/09/13 07:16:45;;;;;;;8.43;5.80;;;16.40;99.90;;;15.49;100.00;100309.38;5020493;28;19940;-84
2022/09/13 07:19:25;;;;;;;9.48;5.75;;;16.40;99.90;;;15.50;100.00;100306.59;4988813;28;20030;-82
2022/09/13 07:21:51;;;;;;;8.88;6.38;;;16.40;99.90;;;15.52;100.00;100302.03;5004922;28;20030;-81
2022/09/13 07:24:17;;;;;;;9.30;5.90;;;16.50;99.90;;;15.56;100.00;100294.69;5002637;28;20037;-83
2022/09/13 07:26:45;;;;;;;12.80;6.35;;;;;;;15.61;100.00;100300.50;5021172;28;20041;-82
2022/09/13 07:29:22;;;;;;;11.15;6.85;;;16.00;99.90;;;15.65;100.00;100304.63;5024293;28;20072;-83
2022/09/13 07:31:51;;;;;;;13.63;7.28;;;16.50;99.90;;;15.67;100.00;100308.00;4990169;28;20022;-83
2022/09/13 07:34:20;;;;;;;10.80;7.50;;;16.60;99.90;;;15.63;100.00;100300.38;5001633;28;20564;-84
2022/09/13 07:36:47;;;;;;;16.27;7.80;;;;;;;15.63;100.00;100306.53;5006800;28;20490;-83
2022/09/13 07:39:15;;;;;;;14.02;7.95;;;16.60;99.90;;;15.68;100.00;100307.06;5007900;28;20037;-81
2022/09/13 07:41:42;;;;;;;12.88;8.43;;;16.60;99.90;;;15.71;100.00;100308.63;4990434;28;20499;-84
2022/09/13 07:44:13;;;;;;;11.77;8.95;;;16.60;99.90;;;15.69;100.00;100300.78;5027014;28;20033;-84
2022/09/13 07:46:40;;;;;;;13.85;8.98;;;16.60;99.90;;;15.65;100.00;100294.00;5009170;28;20486;-83
2022/09/13 07:49:09;;;;;;;17.08;8.50;;;16.60;99.90;;;15.59;100.00;100305.94;5010191;28;20061;-84
2022/09/13 07:51:43;;;;;;;13.75;9.00;;;16.60;99.90;;;15.57;100.00;100302.53;5009372;28;20022;-83
2022/09/13 07:54:19;;;;;;;12.95;8.85;;;16.50;99.90;;;15.53;100.00;100306.38;5005254;28;20029;-85
2022/09/13 07:56:48;;;;;;;13.90;9.90;;;16.50;99.90;;;15.49;100.00;100306.72;4994293;28;20101;-83
2022/09/13 07:59:16;;;;;;;11.73;9.38;;;16.50;99.90;;;15.50;100.00;100308.41;5024534;28;20565;-84
2022/09/13 08:01:49;;;;;;;12.23;9.95;;;16.40;99.90;;;15.43;100.00;100294.75;4981444;28;20452;-84
2022/09/13 08:04:18;;;;;;;13.50;9.73;;;16.40;99.90;;;15.44;100.00;100287.63;4984608;28;20037;-83
2022/09/13 08:06:45;;;;;;;14.55;9.18;;;16.40;99.90;;;15.47;100.00;100287.44;4982913;28;20013;-83
2022/09/13 08:09:18;;;;;;;18.40;9.93;;;16.40;99.90;;;15.51;100.00;100278.28;4992744;28;20033;-82
2022/09/13 08:11:56;;;;;;;14.40;10.10;;;16.50;99.90;;;15.59;100.00;100282.06;5019498;28;20029;-83
2022/09/13 08:14:23;;;;;;;13.18;9.98;;;16.50;99.90;;;15.62;100.00;100283.63;5022685;28;20025;-83
2022/09/13 08:16:49;;;;;;;13.77;9.82;;;16.60;99.90;;;15.67;100.00;100278.81;5022401;28;20051;-84
2022/09/13 08:19:17;;;;;;;14.75;10.10;;;16.60;99.90;;;15.79;100.00;100285.88;5007460;28;20030;-83
2022/09/13 08:21:47;;;;;;;13.18;10.02;;;16.70;99.90;;;15.92;100.00;100290.28;5023733;28;20034;-85
2022/09/13 08:24:18;;;;;;;12.93;9.50;;;16.80;99.90;;;15.96;100.00;100284.63;5022634;28;20081;-83
2022/09/13 08:26:45;;;;;;;15.70;10.27;;;16.80;99.90;;;15.99;100.00;100284.38;5000481;28;20048;-80
2022/09/13 08:29:19;;;;;;;13.48;9.57;;;16.90;99.90;;;16.05;100.00;100280.41;5003131;28;20030;-80
2022/09/13 08:31:45;;;;;;;17.02;9.48;;;16.90;99.90;;;16.06;100.00;100287.41;5004040;28;20061;-78
2022/09/13 08:34:16;;;;;;;11.45;9.70;;;16.90;99.90;;;16.04;100.00;100284.00;5022814;28;20024;-79
2022/09/13 08:36:43;;;;;;;14.45;9.50;;;16.90;99.90;;;15.98;100.00;100295.97;5021236;28;20124;-79
2022/09/13 08:39:12;;;;;;;15.77;10.20;;;16.90;99.90;;;15.96;100.00;100281.09;4988099;28;20557;-79
2022/09/13 08:41:51;;;;;;;15.90;10.65;;;16.90;99.90;;;15.92;100.00;100283.16;5021442;28;20056;-80
2022/09/13 08:44:33;;;;;;;17.75;11.43;;;16.90;99.90;;;15.91;100.00;100283.25;5007034;28;20120;-78
2022/09/13 08:47:20;;;;;;;16.83;11.30;;;16.80;99.90;;;15.88;100.00;100288.81;5006071;28;20072;-79
2022/09/13 08:49:53;;;;;;;16.75;11.88;;;16.80;99.90;;;15.92;100.00;100290.28;5021579;28;20030;-79
2022/09/13 08:52:45;;;;;;;21.75;12.40;;;16.90;99.90;;;15.94;100.00;100298.97;5005883;28;20105;-79
2022/09/13 08:55:19;;;;;;;15.50;11.90;;;16.90;99.90;;;15.99;100.00;100304.78;4989575;28;20506;-79
2022/09/13 08:58:11;;;;;;;19.33;12.57;;;16.90;99.90;;;16.05;100.00;100295.50;5019367;28;20026;-79
2022/09/13 09:01:01;;;;;;;21.38;13.25;;;16.90;99.90;;;16.14;100.00;100284.16;5007431;28;20051;-79
2022/09/13 09:04:14;;;;;;;18.17;12.52;;;17.00;99.90;;;16.23;100.00;100287.94;5005451;28;20136;-80
2022/09/13 09:06:41;;;;;;;20.08;13.30;;;17.10;99.90;;;16.34;100.00;100295.91;4984999;28;20045;-79
2022/09/13 09:09:18;;;;;;;19.40;12.23;;;17.20;99.90;;;16.47;100.00;100291.31;5023351;28;20568;-79
2022/09/13 09:12:21;;;;;;;24.00;11.98;;;17.30;99.90;;;16.58;100.00;100288.66;5003836;28;20110;-79
2022/09/13 09:15:13;;;;;;;19.40;12.07;;;17.40;99.90;;;16.68;100.00;100287.97;5008247;28;20137;-79
2022/09/13 09:18:13;;;;;;;20.10;12.27;;;17.50;99.90;;;16.76;100.00;100282.84;5023331;28;20029;-79
2022/09/13 09:20:49;;;;;;;24.38;12.68;;;17.50;99.90;;;16.80;100.00;100287.84;5006755;28;20033;-79
2022/09/13 09:23:22;;;;;;;24.08;12.95;;;17.60;99.90;;;16.80;100.00;100287.00;4985822;28;20046;-78
2022/09/13 09:26:14;;;;;;;21.55;12.45;;;17.60;99.90;;;16.87;100.00;100277.56;4989126;28;20049;-78
2022/09/13 09:28:46;;;;;;;19.33;13.02;;;17.70;99.90;;;16.98;100.00;100284.69;5005601;28;20045;-79
2022/09/13 09:31:39;;;;;;;22.30;13.10;;;17.80;99.90;;;17.13;100.00;100274.63;5020902;28;20037;-79
2022/09/13 09:34:43;;;;;;;22.60;12.75;;;18.00;99.90;;;17.35;100.00;100282.53;5023800;28;20539;-79
2022/09/13 09:37:21;;;;;;;20.60;12.25;;;18.10;99.90;;;17.55;100.00;100277.38;5022418;28;20059;-79
2022/09/13 09:40:02;;;;;;;23.30;11.98;;;18.30;99.90;;;17.67;100.00;100276.38;5024592;28;20033;-81
2022/09/13 09:42:40;;;;;;;19.33;12.23;;;18.40;99.90;;;17.80;100.00;100271.72;5004837;28;20121;-81
2022/09/13 09:45:31;;;;;;;19.60;11.40;;;18.50;99.90;;;18.06;100.00;100268.69;5005293;28;20132;-81
2022/09/13 09:48:10;;;;;;;20.02;11.40;;;18.80;99.90;;;18.32;100.00;100276.28;4991913;28;20536;-81
2022/09/13 09:50:42;;;;;;;20.58;11.15;;;19.00;99.90;;;18.54;99.97;100270.75;5005436;28;20189;-81
2022/09/13 09:53:27;;;;;;;15.85;10.13;;;19.20;99.90;;;18.85;98.54;100273.41;5022649;28;20530;-81
2022/09/13 09:56:32;;;;;;;16.23;9.30;;;19.50;99.90;;;19.44;96.17;100274.38;5004572;28;20029;-79
2022/09/13 09:59:02;;;;;;;17.48;9.40;;;20.00;99.90;;;19.71;93.16;100271.00;5004008;28;20026;-81
2022/09/13 10:01:37;;;;;;;15.07;8.40;;;20.20;99.90;;;19.84;90.33;100270.72;5005076;28;20042;-79
2022/09/13 10:04:11;;;;;;;14.98;7.88;;;20.40;99.90;;;20.01;88.37;100266.50;5006237;28;20029;-80
2022/09/13 10:06:45;;;;;;;17.90;8.93;;;20.50;99.90;;;20.10;88.41;100275.47;5005022;28;20528;-81
2022/09/13 10:09:27;;;;;;;14.43;7.85;;;20.60;99.90;;;20.17;89.89;100274.75;5022266;28;20033;-80
2022/09/13 10:11:56;;;;;;;12.77;6.75;;;20.70;99.90;;;20.20;88.41;100270.94;5006942;28;20341;-80
2022/09/13 10:14:44;;;;;;;10.52;5.70;;;20.80;99.90;;;20.24;85.79;100275.03;5003313;28;20034;-80
2022/09/13 10:17:30;;;;;;;9.52;5.43;;;20.90;99.90;;;20.44;86.51;100275.78;5022385;28;20033;-79
2022/09/13 10:20:23;;;;;;;13.05;6.28;;;21.00;99.90;;;20.50;85.20;100267.19;4998197;28;20056;-80
2022/09/13 10:23:22;;;;;;;9.15;5.35;;;21.10;99.90;;;20.56;83.59;100263.06;5003960;28;20057;-80
2022/09/13 10:26:20;;;;;;;10.40;5.30;;;21.20;99.90;;;20.63;82.96;100262.38;5003477;28;20133;-81
2022/09/13 10:29:00;;;;;;;12.25;5.43;;;21.20;99.90;;;20.64;82.61;100266.72;5005212;28;20088;-80
2022/09/13 10:31:41;;;;;;;14.27;5.35;;;21.10;99.90;;;20.62;80.96;100254.50;5002416;28;20034;-81
2022/09/13 10:34:32;;;;;;;9.27;4.35;;;21.30;99.90;;;20.98;80.83;100258.09;4989518;28;20467;-81
2022/09/13 10:37:21;;;;;;;12.63;3.60;;;21.40;99.90;;;21.39;79.46;100253.16;5005735;28;20124;-80
2022/09/13 10:40:18;;;;;;;13.30;3.58;;;21.90;99.90;;;21.68;75.70;100244.94;5006966;28;20050;-80
2022/09/13 10:42:59;;;;;;;11.15;2.95;;;22.10;99.90;;;21.77;73.50;100245.84;5003227;28;20048;-80
2022/09/13 10:45:33;;;;;;;7.80;3.00;;;22.20;99.90;;;21.82;75.43;100256.91;5021546;28;20110;-80
2022/09/13 10:48:23;;;;;;;8.25;2.95;;;22.20;99.90;;;21.68;73.33;100246.75;5021251;28;20052;-80
2022/09/13 10:51:27;;;;;;;6.22;3.05;;;22.20;99.90;;;21.73;74.86;100241.78;5004257;28;20037;-80
2022/09/13 10:54:24;;;;;;;6.97;3.28;;;22.40;99.90;;;22.11;74.26;100250.41;5023799;28;20033;-80
2022/09/13 10:56:58;;;;;;;8.90;2.80;;;22.60;99.90;;;22.22;74.41;100254.66;5001758;28;20037;-80
2022/09/13 10:59:32;;;;;;;5.07;2.45;;;22.80;99.90;;;22.58;72.95;100244.66;4987597;28;20045;-81
2022/09/13 11:02:28;;;;;;;13.07;2.72;;;23.00;99.90;;;22.72;70.82;100244.06;5005621;28;20025;-80
2022/09/13 11:05:17;;;;;;;10.05;2.78;;;23.30;99.90;;;23.02;72.25;100249.03;5022883;28;20196;-80